Time;durP1;ratioP1;P1;durP2;ratioP2;P2;SDS_P1;SDS_P2;PMS_P1;PMS_P2;Temp;Humidity;BMP_temperature;BMP_pressure;BME280_temperature;BME280_humidity;BME280_pressure;Samples;Min_cycle;Max_cycle;Signal;HPM_P1;HPM_P2
2022/06/13 00:00:54;;;;;;;2.50;1.53;;;;;;;;;;5032840;28;21039;-83
2022/06/13 00:03:21;;;;;;;3.07;1.43;;;;;;;;;;5040487;28;20472;-83
2022/06/13 00:05:48;;;;;;;3.10;1.53;;;;;;;;;;5045711;28;20470;-83
2022/06/13 00:08:15;;;;;;;4.00;1.80;;;;;;;;;;5039689;28;20457;-82
2022/06/13 00:10:42;;;;;;;3.67;1.70;;;;;;;;;;5036065;28;20453;-82
2022/06/13 00:13:11;;;;;;;3.20;1.90;;;;;;;;;;5050417;28;21003;-81
2022/06/13 00:15:38;;;;;;;2.20;1.80;;;;;;;;;;5038616;28;20461;-81
2022/06/13 00:18:05;;;;;;;2.10;1.70;;;;;;;;;;5043520;28;20955;-81
2022/06/13 00:20:33;;;;;;;2.67;1.70;;;;;;;;;;5041961;28;20476;-82
2022/06/13 00:23:00;;;;;;;3.38;1.85;;;;;;;;;;5047854;28;20966;-80
2022/06/13 00:25:27;;;;;;;2.40;1.50;;;;;;;;;;5045988;28;20665;-79
2022/06/13 00:27:54;;;;;;;2.30;1.57;;;;;;;;;;5041152;28;20802;-81
2022/06/13 00:30:23;;;;;;;4.80;2.30;;;;;;;;;;5037811;28;20534;-84
2022/06/13 00:32:50;;;;;;;2.20;1.60;;;;;;;;;;5048143;28;20483;-84
2022/06/13 00:35:18;;;;;;;5.63;2.27;;;;;;;;;;5054631;28;20457;-84
2022/06/13 00:37:45;;;;;;;2.53;1.57;;;;;;;;;;5031161;28;20559;-84
2022/06/13 00:40:12;;;;;;;3.53;1.87;;;;;;;;;;5043033;28;21036;-84
2022/06/13 00:42:40;;;;;;;2.40;1.40;;;;;;;;;;5049256;28;20487;-84
2022/06/13 00:45:10;;;;;;;2.23;1.83;;;;;;;;;;5049147;28;20468;-84
2022/06/13 00:47:40;;;;;;;3.70;1.80;;;;;;;;;;5049871;28;20453;-84
2022/06/13 00:50:08;;;;;;;2.20;1.50;;;;;;;;;;5043058;28;20466;-84
2022/06/13 00:52:38;;;;;;;2.97;1.50;;;;;;;;;;5055136;28;20199;-84
2022/06/13 00:55:06;;;;;;;4.70;1.90;;;;;;;;;;5052244;28;20204;-84
2022/06/13 00:57:34;;;;;;;2.25;1.50;;;;;;;;;;5050745;28;20452;-86
2022/06/13 01:00:02;;;;;;;2.60;1.77;;;;;;;;;;5045314;28;20947;-86
2022/06/13 01:02:30;;;;;;;3.70;2.15;;;;;;;;;;5047971;28;20487;-85
2022/06/13 01:04:59;;;;;;;3.88;2.20;;;;;;;;;;5052899;28;20202;-85
2022/06/13 01:07:29;;;;;;;2.47;1.70;;;;;;;;;;5035340;28;20206;-85
2022/06/13 01:12:41;;;;;;;4.28;1.75;;;;;;;;;;5049853;28;20741;-83
2022/06/13 01:15:12;;;;;;;3.20;1.70;;;;;;;;;;5041723;28;20680;-83
2022/06/13 01:17:47;;;;;;;3.00;1.70;;;;;;;;;;5050330;28;20209;-83
2022/06/13 01:20:26;;;;;;;2.70;1.85;;;;;;;;;;5046478;28;20276;-83
2022/06/13 01:23:07;;;;;;;3.13;1.63;;;;;;;;;;5048608;28;20246;-83
2022/06/13 01:25:52;;;;;;;1.95;1.83;;;;;;;;;;5051169;28;20466;-83
2022/06/13 01:28:32;;;;;;;3.80;2.30;;;;;;;;;;5043236;28;20212;-83
2022/06/13 01:31:05;;;;;;;2.60;2.00;;;;;;;;;;5036402;28;20489;-82
2022/06/13 01:33:36;;;;;;;4.32;1.95;;;;;;;;;;5041041;28;20205;-83
2022/06/13 01:36:07;;;;;;;3.60;1.88;;;;;;;;;;5049827;28;20265;-83
2022/06/13 01:38:42;;;;;;;4.15;1.95;;;;;;;;;;5044088;28;20201;-83
2022/06/13 01:41:11;;;;;;;2.85;1.85;;;;;;;;;;5053270;28;20302;-83
2022/06/13 01:43:47;;;;;;;6.85;2.00;;;;;;;;;;5054391;28;20877;-82
2022/06/13 01:46:19;;;;;;;3.60;1.70;;;;;;;;;;5047264;28;20195;-82
2022/06/13 01:48:52;;;;;;;2.42;1.90;;;;;;;;;;5051612;28;20207;-81
2022/06/13 01:51:22;;;;;;;2.95;1.58;;;;;;;;;;5055582;28;20200;-81
2022/06/13 01:53:51;;;;;;;5.22;2.00;;;;;;;;;;5050876;28;20608;-82
2022/06/13 01:56:21;;;;;;;2.72;2.20;;;;;;;;;;5052684;28;20212;-82
2022/06/13 01:58:51;;;;;;;2.88;1.90;;;;;;;;;;5052154;28;20291;-81
2022/06/13 02:01:23;;;;;;;3.75;1.70;;;;;;;;;;5045630;28;20229;-82
2022/06/13 02:03:52;;;;;;;2.97;1.95;;;;;;;;;;5052741;28;20200;-82
2022/06/13 02:06:21;;;;;;;2.70;2.20;;;;;;;;;;5047488;28;20271;-82
2022/06/13 02:08:50;;;;;;;4.63;1.90;;;;;;;;;;5048802;28;20691;-82
2022/06/13 02:11:20;;;;;;;2.80;1.90;;;;;;;;;;5042313;28;20195;-82
2022/06/13 02:13:51;;;;;;;3.45;1.90;;;;;;;;;;5048172;28;20596;-82
2022/06/13 02:16:21;;;;;;;2.55;2.10;;;;;;;;;;5037382;28;20697;-81
2022/06/13 02:18:51;;;;;;;3.05;2.72;;;;;;;;;;5045286;28;20200;-81
2022/06/13 02:21:21;;;;;;;2.25;1.55;;;;;;;;;;5045658;28;20298;-83
2022/06/13 02:23:50;;;;;;;4.07;1.90;;;;;;;;;;5041105;28;20208;-84
2022/06/13 02:26:19;;;;;;;3.08;1.85;;;;;;;;;;5046672;28;20210;-84
2022/06/13 02:28:49;;;;;;;5.18;1.70;;;;;;;;;;5048194;28;20202;-85
2022/06/13 02:31:18;;;;;;;2.30;1.77;;;;;;;;;;5046300;28;20199;-85
2022/06/13 02:33:48;;;;;;;2.05;1.40;;;;;;;;;;5047159;28;20222;-82
2022/06/13 02:36:18;;;;;;;1.90;1.70;;;;;;;;;;5043846;28;20667;-85
2022/06/13 02:38:48;;;;;;;5.10;1.80;;;;;;;;;;5033525;28;20250;-85
2022/06/13 02:41:16;;;;;;;2.70;1.98;;;;;;;;;;5049799;28;20224;-85
2022/06/13 02:43:46;;;;;;;3.42;1.58;;;;;;;;;;5048564;28;20615;-83
2022/06/13 02:46:16;;;;;;;3.65;1.50;;;;;;;;;;5040440;28;20207;-83
2022/06/13 02:48:45;;;;;;;2.83;2.20;;;;;;;;;;5046107;28;20218;-83
2022/06/13 02:51:18;;;;;;;3.45;1.90;;;;;;;;;;5046036;28;20729;-84
2022/06/13 02:53:48;;;;;;;5.40;2.10;;;;;;;;;;5042762;28;20203;-83
2022/06/13 02:56:23;;;;;;;3.92;2.55;;;;;;;;;;5049965;28;20713;-83
2022/06/13 02:58:55;;;;;;;6.68;2.13;;;;;;;;;;5049410;28;20203;-84
2022/06/13 03:01:26;;;;;;;2.10;1.90;;;;;;;;;;5039068;28;20216;-83
2022/06/13 03:03:55;;;;;;;4.38;1.80;;;;;;;;;;5042834;28;20199;-83
2022/06/13 03:06:27;;;;;;;3.67;1.83;;;;;;;;;;5042369;28;20278;-83
2022/06/13 03:09:00;;;;;;;3.42;2.25;;;;;;;;;;5038926;28;20206;-84
2022/06/13 03:11:38;;;;;;;2.17;1.48;;;;;;;;;;5045383;28;20199;-84
2022/06/13 03:14:13;;;;;;;4.15;1.95;;;;;;;;;;5057299;28;20234;-84
2022/06/13 03:16:44;;;;;;;3.53;2.08;;;;;;;;;;5048300;28;20654;-83
2022/06/13 03:19:14;;;;;;;3.13;2.10;;;;;;;;;;5046871;28;20252;-84
2022/06/13 03:21:46;;;;;;;2.97;1.90;;;;;;;;;;5036578;28;20575;-83
2022/06/13 03:24:16;;;;;;;3.10;1.90;;;;;;;;;;5041616;28;20203;-83
2022/06/13 03:26:45;;;;;;;3.60;1.92;;;;;;;;;;5047904;28;20210;-83
2022/06/13 03:29:14;;;;;;;2.50;1.63;;;;;;;;;;5040860;28;20335;-83
2022/06/13 03:31:43;;;;;;;4.47;1.63;;;;;;;;;;5051233;28;20190;-83
2022/06/13 03:34:12;;;;;;;2.53;1.70;;;;;;;;;;5048572;28;20666;-83
2022/06/13 03:36:40;;;;;;;2.45;1.50;;;;;;;;;;5044447;28;20582;-82
2022/06/13 03:39:12;;;;;;;9.43;2.22;;;;;;;;;;5040970;28;20210;-81
2022/06/13 03:41:41;;;;;;;1.85;1.65;;;;;;;;;;5048282;28;20218;-81
2022/06/13 03:44:12;;;;;;;1.88;1.30;;;;;;;;;;5045574;28;20642;-82
2022/06/13 03:46:41;;;;;;;3.03;1.50;;;;;;;;;;5043229;28;20202;-82
2022/06/13 03:49:12;;;;;;;4.63;1.60;;;;;;;;;;5049097;28;20194;-82
2022/06/13 03:51:42;;;;;;;2.97;1.63;;;;;;;;;;5040373;28;20551;-82
2022/06/13 03:54:13;;;;;;;2.75;1.70;;;;;;;;;;5045892;28;20596;-82
2022/06/13 03:56:43;;;;;;;2.70;1.85;;;;;;;;;;5046953;28;20210;-83
2022/06/13 03:59:13;;;;;;;3.60;2.05;;;;;;;;;;5050944;28;20570;-82
2022/06/13 04:01:41;;;;;;;4.55;2.97;;;;;;;;;;5039958;28;20751;-82
2022/06/13 04:04:12;;;;;;;4.32;1.85;;;;;;;;;;5057624;28;20256;-83
2022/06/13 04:06:40;;;;;;;3.28;1.80;;;;;;;;;;5045358;28;20669;-82
2022/06/13 04:09:10;;;;;;;5.30;2.17;;;;;;;;;;5042306;28;20195;-83
2022/06/13 04:11:48;;;;;;;2.40;1.50;;;;;;;;;;5044177;28;20194;-83
2022/06/13 04:14:22;;;;;;;3.80;1.63;;;;;;;;;;5037267;28;20712;-82
2022/06/13 04:16:53;;;;;;;2.15;1.70;;;;;;;;;;5044675;28;20605;-83
2022/06/13 04:19:28;;;;;;;3.08;2.22;;;;;;;;;;5045225;28;20194;-83
2022/06/13 04:21:57;;;;;;;2.78;1.80;;;;;;;;;;5046502;28;20223;-84
2022/06/13 04:24:30;;;;;;;3.60;2.42;;;;;;;;;;5052783;28;20203;-84
2022/06/13 04:27:01;;;;;;;3.50;2.35;;;;;;;;;;5053180;28;20226;-84
2022/06/13 04:29:29;;;;;;;4.22;1.80;;;;;;;;;;5046770;28;20322;-84
2022/06/13 04:31:59;;;;;;;2.28;1.70;;;;;;;;;;5054853;28;20555;-83
2022/06/13 04:34:29;;;;;;;2.45;2.20;;;;;;;;;;5044453;28;20200;-83
2022/06/13 04:36:57;;;;;;;2.28;1.75;;;;;;;;;;5043182;28;21056;-82
2022/06/13 04:39:26;;;;;;;1.65;1.48;;;;;;;;;;5045588;28;20647;-82
2022/06/13 04:41:54;;;;;;;2.70;2.15;;;;;;;;;;5050794;28;20649;-82
2022/06/13 04:44:24;;;;;;;3.05;1.60;;;;;;;;;;5049600;28;20625;-83
2022/06/13 04:46:51;;;;;;;3.78;1.95;;;;;;;;;;5048599;28;20249;-83
2022/06/13 04:49:23;;;;;;;3.28;1.70;;;;;;;;;;5046983;28;20310;-84
2022/06/13 04:51:51;;;;;;;2.55;2.00;;;;;;;;;;5043163;28;20282;-84
2022/06/13 04:54:20;;;;;;;3.53;2.25;;;;;;;;;;5044382;28;20257;-86
2022/06/13 04:56:48;;;;;;;2.38;2.10;;;;;;;;;;5052427;28;20191;-85
2022/06/13 04:59:15;;;;;;;3.80;2.25;;;;;;;;;;5047545;28;20563;-85
2022/06/13 05:01:45;;;;;;;3.88;1.70;;;;;;;;;;5045340;28;20673;-85
2022/06/13 05:04:15;;;;;;;2.10;1.70;;;;;;;;;;5047541;28;20202;-85
2022/06/13 05:06:44;;;;;;;3.10;2.05;;;;;;;;;;5049296;28;20210;-86
2022/06/13 05:09:15;;;;;;;2.20;2.00;;;;;;;;;;5050848;28;20200;-85
2022/06/13 05:11:46;;;;;;;4.15;1.98;;;;;;;;;;5050085;28;20194;-87
2022/06/13 05:14:15;;;;;;;2.65;2.10;;;;;;;;;;5041375;28;20191;-82
2022/06/13 05:16:53;;;;;;;3.42;2.05;;;;;;;;;;5049539;28;20202;-84
2022/06/13 05:19:43;;;;;;;3.75;2.22;;;;;;;;;;5046639;28;20203;-84
2022/06/13 05:22:15;;;;;;;3.85;2.10;;;;;;;;;;5042255;28;20216;-85
2022/06/13 05:25:00;;;;;;;4.82;2.60;;;;;;;;;;5041731;28;20192;-86
2022/06/13 05:27:27;;;;;;;3.65;2.03;;;;;;;;;;5047372;28;20198;-86
2022/06/13 05:29:54;;;;;;;6.18;2.35;;;;;;;;;;5039977;28;20298;-85
2022/06/13 05:32:23;;;;;;;4.43;2.35;;;;;;;;;;5049237;28;20198;-86
2022/06/13 05:34:51;;;;;;;2.08;1.85;;;;;;;;;;5043588;28;20208;-86
2022/06/13 05:37:18;;;;;;;3.63;2.45;;;;;;;;;;5042984;28;20593;-86
2022/06/13 05:39:45;;;;;;;2.10;1.90;;;;;;;;;;5049542;28;20199;-86
2022/06/13 05:42:14;;;;;;;3.72;2.33;;;;;;;;;;5051372;28;20227;-86
2022/06/13 05:44:41;;;;;;;3.67;2.03;;;;;;;;;;5051481;28;20293;-87
2022/06/13 05:47:09;;;;;;;2.50;1.92;;;;;;;;;;5048134;28;20210;-84
2022/06/13 05:49:38;;;;;;;3.88;2.80;;;;;;;;;;5037948;28;20191;-83
2022/06/13 05:52:05;;;;;;;3.45;1.65;;;;;;;;;;5043017;28;20625;-84
2022/06/13 05:54:32;;;;;;;3.63;2.10;;;;;;;;;;5050852;28;20202;-84
2022/06/13 05:56:59;;;;;;;3.20;2.30;;;;;;;;;;5044024;28;20211;-84
2022/06/13 05:59:26;;;;;;;3.58;2.00;;;;;;;;;;5050877;28;20205;-84
2022/06/13 06:01:53;;;;;;;6.78;3.05;;;;;;;;;;5044995;28;20547;-84
2022/06/13 06:04:20;;;;;;;4.43;2.22;;;;;;;;;;5045840;28;20256;-84
2022/06/13 06:06:49;;;;;;;4.63;2.90;;;;;;;;;;5036242;28;20771;-83
2022/06/13 06:09:17;;;;;;;4.07;2.30;;;;;;;;;;5047201;28;20257;-85
2022/06/13 06:11:44;;;;;;;4.20;2.42;;;;;;;;;;5042398;28;20210;-84
2022/06/13 06:14:11;;;;;;;5.22;2.78;;;;;;;;;;5052028;28;20329;-84
2022/06/13 06:16:38;;;;;;;5.18;2.97;;;;;;;;;;5045962;28;20268;-84
2022/06/13 06:19:06;;;;;;;5.90;2.95;;;;;;;;;;5042740;28;20199;-84
2022/06/13 06:21:33;;;;;;;8.45;2.67;;;;;;;;;;5044471;28;20195;-84
2022/06/13 06:24:01;;;;;;;5.82;3.53;;;;;;;;;;5049578;28;20265;-87
2022/06/13 06:26:28;;;;;;;2.75;2.30;;;;;;;;;;5046786;28;20650;-87
2022/06/13 06:28:55;;;;;;;2.65;2.30;;;;;;;;;;5047702;28;20196;-87
2022/06/13 06:31:22;;;;;;;2.45;2.00;;;;;;;;;;5043544;28;20206;-84
2022/06/13 06:33:49;;;;;;;3.22;2.03;;;;;;;;;;5042437;28;20199;-85
2022/06/13 06:36:16;;;;;;;3.17;1.88;;;;;;;;;;5041337;28;20207;-84
2022/06/13 06:38:45;;;;;;;3.88;2.28;;;;;;;;;;5042310;28;20246;-85
2022/06/13 06:41:14;;;;;;;2.85;2.08;;;;;;;;;;5043131;28;20313;-86
2022/06/13 06:43:41;;;;;;;4.70;2.70;;;;;;;;;;5042251;28;20242;-87
2022/06/13 06:46:08;;;;;;;3.63;2.20;;;;;;;;;;5043863;28;20209;-85
2022/06/13 06:48:36;;;;;;;3.47;2.35;;;;;;;;;;5038584;28;20196;-84
2022/06/13 06:51:06;;;;;;;3.92;2.08;;;;;;;;;;5039118;28;20566;-85
2022/06/13 06:59:53;;;;;;;4.78;2.38;;;;;;;;;;5048116;28;20197;-88
2022/06/13 07:01:51;;;;;;;2.23;2.00;;;;;;;;;;5044167;28;20322;-81
2022/06/13 07:04:18;;;;;;;2.33;2.10;;;;;;;;;;5048061;28;20819;-82
2022/06/13 07:06:46;;;;;;;2.97;1.90;;;;;;;;;;5046697;28;20224;-81
2022/06/13 07:09:13;;;;;;;2.83;2.10;;;;;;;;;;5046716;28;20468;-81
2022/06/13 07:11:57;;;;;;;2.43;2.10;;;;;;;;;;5049468;28;20206;-80
2022/06/13 07:14:25;;;;;;;2.90;2.03;;;;;;;;;;5051657;28;20535;-81
2022/06/13 07:16:52;;;;;;;3.70;1.67;;;;;;;;;;5036079;28;20536;-81
2022/06/13 07:19:19;;;;;;;2.60;2.13;;;;;;;;;;5045957;28;20257;-80
2022/06/13 07:21:46;;;;;;;3.53;2.30;;;;;;;;;;5044891;28;20460;-81
2022/06/13 07:24:14;;;;;;;2.30;2.10;;;;;;;;;;5048741;28;20214;-82
2022/06/13 07:26:42;;;;;;;2.90;2.03;;;;;;;;;;5044331;28;20457;-80
2022/06/13 07:29:10;;;;;;;3.40;2.15;;;;;;;;;;5036018;28;20294;-81
2022/06/13 07:31:39;;;;;;;4.50;2.38;;;;;;;;;;5047564;28;20197;-81
2022/06/13 07:34:07;;;;;;;4.77;2.30;;;;;;;;;;5050080;28;20253;-82
2022/06/13 07:36:34;;;;;;;3.25;2.33;;;;;;;;;;5030364;28;20524;-81
2022/06/13 07:39:01;;;;;;;5.35;3.05;;;;;;;;;;5045952;28;20206;-81
2022/06/13 07:41:28;;;;;;;6.63;2.70;;;;;;;;;;5042452;28;20220;-82
2022/06/13 07:43:57;;;;;;;3.38;1.88;;;;;;;;;;5047877;28;20219;-81
2022/06/13 07:46:26;;;;;;;3.13;2.35;;;;;;;;;;5050686;28;20198;-82
2022/06/13 07:48:54;;;;;;;3.25;2.40;;;;;;;;;;5047613;28;20236;-82
2022/06/13 07:51:22;;;;;;;4.82;2.60;;;;;;;;;;5048080;28;20209;-83
2022/06/13 07:53:49;;;;;;;3.97;3.03;;;;;;;;;;5049460;28;20656;-80
2022/06/13 07:56:18;;;;;;;3.60;2.85;;;;;;;;;;5049826;28;20205;-80
2022/06/13 07:58:46;;;;;;;3.20;2.78;;;;;;;;;;5049652;28;20246;-82
2022/06/13 08:01:14;;;;;;;3.33;2.85;;;;;;;;;;5049981;28;20644;-81
2022/06/13 08:03:42;;;;;;;4.20;3.28;;;;;;;;;;5058087;28;20217;-81
2022/06/13 08:06:10;;;;;;;5.90;3.55;;;;;;;;;;5052067;28;20575;-81
2022/06/13 08:08:37;;;;;;;6.55;3.53;;;;;;;;;;5048786;28;20198;-81
2022/06/13 08:11:06;;;;;;;4.82;3.60;;;;;;;;;;5054749;28;20214;-81
2022/06/13 08:13:34;;;;;;;5.20;3.10;;;;;;;;;;5038581;28;20204;-82
2022/06/13 08:16:01;;;;;;;4.35;3.10;;;;;;;;;;5034654;28;20196;-81
2022/06/13 08:18:29;;;;;;;4.93;3.28;;;;;;;;;;5049762;28;20202;-82
2022/06/13 08:20:57;;;;;;;4.35;3.20;;;;;;;;;;5053799;28;20207;-81
2022/06/13 08:23:25;;;;;;;4.22;3.30;;;;;;;;;;5047871;28;20223;-82
2022/06/13 08:25:53;;;;;;;4.00;3.42;;;;;;;;;;5053322;28;20719;-82
2022/06/13 08:28:20;;;;;;;5.00;3.55;;;;;;;;;;5057966;28;20235;-82
2022/06/13 08:30:49;;;;;;;3.92;3.30;;;;;;;;;;5048801;28;20203;-82
2022/06/13 08:33:17;;;;;;;5.78;3.40;;;;;;;;;;5054506;28;20218;-81
2022/06/13 08:35:45;;;;;;;3.97;3.28;;;;;;;;;;5061870;28;20354;-81
2022/06/13 08:38:12;;;;;;;6.38;3.20;;;;;;;;;;5034830;28;20332;-81
2022/06/13 08:40:42;;;;;;;5.30;3.80;;;;;;;;;;5042358;28;20201;-81
2022/06/13 08:43:18;;;;;;;3.42;3.13;;;;;;;;;;5051104;28;20765;-81
2022/06/13 08:45:48;;;;;;;4.18;3.60;;;;;;;;;;5043523;28;20203;-81
2022/06/13 08:48:20;;;;;;;5.38;4.20;;;;;;;;;;5048062;28;20200;-81
2022/06/13 08:50:53;;;;;;;5.88;4.25;;;;;;;;;;5050033;28;20777;-81
2022/06/13 08:53:23;;;;;;;6.53;3.80;;;;;;;;;;5045316;28;20704;-81
2022/06/13 08:55:52;;;;;;;5.88;4.43;;;;;;;;;;5045541;28;20202;-85
2022/06/13 08:58:21;;;;;;;4.90;3.88;;;;;;;;;;5044859;28;20205;-82
2022/06/13 09:00:50;;;;;;;7.82;4.22;;;;;;;;;;5046783;28;20202;-82
2022/06/13 09:03:19;;;;;;;5.65;3.90;;;;;;;;;;5049968;28;20253;-82
2022/06/13 09:05:51;;;;;;;5.90;4.10;;;;;;;;;;5050590;28;20205;-82
2022/06/13 09:08:20;;;;;;;5.13;4.10;;;;;;;;;;5044886;28;20207;-82
2022/06/13 09:10:52;;;;;;;7.55;4.57;;;;;;;;;;5045235;28;20196;-81
2022/06/13 09:13:24;;;;;;;6.22;4.40;;;;;;;;;;5052530;28;20193;-83
2022/06/13 09:15:55;;;;;;;5.03;4.03;;;;;;;;;;5039828;28;20204;-83
2022/06/13 09:18:25;;;;;;;4.25;3.35;;;;;;;;;;5040215;28;20231;-83
2022/06/13 09:20:57;;;;;;;6.80;3.88;;;;;;;;;;5049102;28;20202;-83
2022/06/13 09:23:30;;;;;;;6.18;4.60;;;;;;;;;;5050165;28;20215;-83
2022/06/13 09:25:59;;;;;;;5.35;3.75;;;;;;;;;;5049884;28;20294;-82
2022/06/13 09:28:29;;;;;;;5.65;3.47;;;;;;;;;;5047468;28;20238;-82
2022/06/13 09:30:58;;;;;;;5.82;3.90;;;;;;;;;;5045288;28;20600;-83
2022/06/13 09:33:28;;;;;;;4.35;3.20;;;;;;;;;;5052808;28;20193;-83
2022/06/13 09:35:58;;;;;;;5.18;3.17;;;;;;;;;;5039909;28;20210;-82
2022/06/13 09:38:26;;;;;;;3.55;3.25;;;;;;;;;;5033365;28;20315;-84
2022/06/13 09:40:59;;;;;;;5.47;3.65;;;;;;;;;;5036317;28;20207;-83
2022/06/13 09:43:33;;;;;;;3.50;3.08;;;;;;;;;;5035230;28;20224;-83
2022/06/13 09:46:05;;;;;;;3.50;3.00;;;;;;;;;;5035737;28;20678;-82
2022/06/13 09:48:38;;;;;;;3.75;2.65;;;;;;;;;;5037781;28;21293;-83
2022/06/13 09:51:11;;;;;;;4.50;3.45;;;;;;;;;;5033179;28;20191;-83
2022/06/13 09:53:44;;;;;;;6.05;3.17;;;;;;;;;;5033389;28;20586;-83
2022/06/13 09:56:13;;;;;;;5.13;3.25;;;;;;;;;;5034311;28;20205;-82
2022/06/13 09:58:49;;;;;;;4.78;3.47;;;;;;;;;;5033077;28;20683;-83
2022/06/13 10:01:21;;;;;;;3.65;3.35;;;;;;;;;;5033320;28;20209;-83
2022/06/13 10:03:51;;;;;;;4.05;2.80;;;;;;;;;;5035380;28;20213;-83
2022/06/13 10:06:26;;;;;;;3.15;2.78;;;;;;;;;;5032459;28;20193;-82
2022/06/13 10:09:01;;;;;;;6.65;2.92;;;;;;;;;;5036554;28;20204;-82
2022/06/13 10:11:33;;;;;;;5.60;3.03;;;;;;;;;;5036821;28;20201;-82
2022/06/13 10:14:08;;;;;;;5.10;3.25;;;;;;;;;;5035863;28;20749;-84
2022/06/13 10:16:42;;;;;;;5.40;2.85;;;;;;;;;;5036321;28;20206;-85
2022/06/13 10:19:13;;;;;;;7.10;3.08;;;;;;;;;;5029961;28;20209;-81
2022/06/13 10:21:45;;;;;;;4.28;2.95;;;;;;;;;;5029561;28;20208;-83
2022/06/13 10:24:17;;;;;;;3.30;2.03;;;;;;;;;;5043057;28;20697;-81
2022/06/13 10:26:50;;;;;;;7.32;3.05;;;;;;;;;;5050921;28;20459;-83
2022/06/13 10:29:32;;;;;;;3.58;1.92;;;;;;;;;;5047234;28;20200;-82
2022/06/13 10:32:03;;;;;;;2.60;2.40;;;;;;;;;;5041146;28;20690;-82
2022/06/13 10:34:37;;;;;;;4.45;2.58;;;;;;;;;;5052167;28;20516;-82
2022/06/13 10:37:11;;;;;;;2.53;2.13;;;;;;;;;;5057119;28;20198;-82
2022/06/13 10:39:39;;;;;;;3.20;2.13;;;;;;;;;;5053343;28;20192;-83
2022/06/13 10:42:07;;;;;;;3.38;2.20;;;;;;;;;;5043851;28;20486;-83
2022/06/13 10:44:35;;;;;;;3.95;2.50;;;;;;;;;;5043512;28;20223;-80
2022/06/13 10:47:12;;;;;;;4.17;2.20;;;;;;;;;;5052775;28;20286;-84
2022/06/13 10:49:40;;;;;;;2.28;1.70;;;;;;;;;;5044747;28;20465;-81
2022/06/13 10:52:19;;;;;;;3.38;2.33;;;;;;;;;;5047784;28;20207;-83
2022/06/13 10:54:47;;;;;;;3.25;2.03;;;;;;;;;;5040643;28;20208;-82
2022/06/13 10:57:16;;;;;;;4.05;2.30;;;;;;;;;;5047727;28;20216;-83
2022/06/13 10:59:43;;;;;;;2.90;2.10;;;;;;;;;;5041705;28;20547;-82
2022/06/13 11:02:24;;;;;;;3.78;2.17;;;;;;;;;;5040110;28;20202;-83
2022/06/13 11:05:05;;;;;;;2.50;2.30;;;;;;;;;;5042145;28;20259;-82
2022/06/13 11:07:37;;;;;;;2.28;2.05;;;;;;;;;;5037224;28;20635;-81
2022/06/13 11:10:04;;;;;;;4.00;2.50;;;;;;;;;;5037184;28;20609;-80
2022/06/13 11:12:32;;;;;;;4.50;2.05;;;;;;;;;;5042049;28;20202;-82
2022/06/13 11:23:36;;;;;;;3.08;1.80;;;;;;;;;;5035462;28;20291;-82
2022/06/13 11:27:39;;;;;;;1.60;1.50;;;;;;;;;;5047082;28;20192;-83
2022/06/13 11:28:52;;;;;;;5.50;2.13;;;;;;;;;;5043282;28;20922;-82
2022/06/13 11:31:20;;;;;;;2.60;2.10;;;;;;;;;;5048482;28;20215;-83
2022/06/13 11:33:47;;;;;;;3.25;1.80;;;;;;;;;;5058500;28;20200;-80
2022/06/13 11:36:22;;;;;;;2.20;1.88;;;;;;;;;;5044734;28;20219;-81
2022/06/13 11:38:55;;;;;;;3.07;1.83;;;;;;;;;;5039182;28;20319;-82
2022/06/13 11:41:23;;;;;;;5.88;3.42;;;;;;;;;;5039937;28;20471;-85
2022/06/13 11:43:53;;;;;;;3.63;2.20;;;;;;;;;;5050982;28;20205;-84
2022/06/13 11:46:31;;;;;;;6.00;2.63;;;;;;;;;;5036836;28;20201;-85
2022/06/13 11:49:02;;;;;;;13.75;2.90;;;;;;;;;;5043812;28;20195;-86
2022/06/13 11:51:31;;;;;;;6.70;2.40;;;;;;;;;;5044293;28;20201;-83
2022/06/13 11:54:00;;;;;;;7.07;2.03;;;;;;;;;;5048587;28;20211;-80
2022/06/13 11:56:29;;;;;;;11.45;2.17;;;;;;;;;;5036470;28;20200;-84
2022/06/13 11:58:58;;;;;;;9.63;2.80;;;;;;;;;;5047712;28;20216;-84
2022/06/13 12:01:28;;;;;;;7.60;2.20;;;;;;;;;;5044453;28;20235;-83
2022/06/13 12:04:00;;;;;;;2.42;1.83;;;;;;;;;;5045187;28;20203;-83
2022/06/13 12:06:27;;;;;;;7.47;1.90;;;;;;;;;;5042336;28;20746;-84
2022/06/13 12:09:03;;;;;;;11.00;2.65;;;;;;;;;;5030626;28;20198;-83
2022/06/13 12:11:30;;;;;;;7.10;2.40;;;;;;;;;;5046331;28;20559;-83
2022/06/13 12:13:59;;;;;;;4.05;1.85;;;;;;;;;;5042322;28;20293;-82
2022/06/13 12:16:33;;;;;;;5.60;2.20;;;;;;;;;;5034356;28;20247;-83
2022/06/13 12:19:04;;;;;;;2.83;1.50;;;;;;;;;;5043977;28;20993;-81
2022/06/13 12:21:35;;;;;;;2.45;1.65;;;;;;;;;;5037385;28;20222;-82
2022/06/13 12:24:08;;;;;;;2.08;1.35;;;;;;;;;;5039899;28;20574;-83
2022/06/13 12:26:36;;;;;;;6.05;1.80;;;;;;;;;;5041366;28;20229;-82
2022/06/13 12:29:08;;;;;;;2.60;1.60;;;;;;;;;;5033008;28;20682;-80
2022/06/13 12:31:39;;;;;;;2.40;1.10;;;;;;;;;;5044445;28;20203;-79
2022/06/13 12:34:13;;;;;;;2.70;1.60;;;;;;;;;;5043162;28;20201;-79
2022/06/13 12:36:50;;;;;;;2.40;1.40;;;;;;;;;;5040624;28;20209;-80
2022/06/13 12:39:29;;;;;;;3.78;1.50;;;;;;;;;;5036881;28;20723;-80
2022/06/13 12:42:00;;;;;;;3.93;1.10;;;;;;;;;;5048797;28;20225;-82
2022/06/13 12:44:35;;;;;;;2.60;1.20;;;;;;;;;;5050872;28;20483;-81
2022/06/13 12:47:08;;;;;;;5.53;1.57;;;;;;;;;;5041453;28;20257;-82
2022/06/13 12:49:56;;;;;;;7.53;2.20;;;;;;;;;;5045303;28;20957;-83
2022/06/13 12:52:29;;;;;;;3.92;1.20;;;;;;;;;;5046661;28;20233;-82
2022/06/13 12:55:02;;;;;;;2.88;1.15;;;;;;;;;;5048748;28;20221;-82
2022/06/13 12:57:37;;;;;;;2.63;1.17;;;;;;;;;;5042970;28;20579;-81
2022/06/13 13:00:10;;;;;;;3.25;1.25;;;;;;;;;;5031370;28;20201;-82
2022/06/13 13:02:45;;;;;;;2.38;1.08;;;;;;;;;;5050825;28;20616;-81
2022/06/13 13:05:17;;;;;;;1.52;1.08;;;;;;;;;;5043807;28;20219;-82
2022/06/13 13:07:48;;;;;;;2.63;1.30;;;;;;;;;;5041555;28;20209;-81
2022/06/13 13:10:34;;;;;;;2.45;1.00;;;;;;;;;;5048642;28;20210;-83
2022/06/13 13:13:17;;;;;;;4.05;1.55;;;;;;;;;;5049172;28;20199;-81
2022/06/13 13:15:47;;;;;;;1.70;1.25;;;;;;;;;;5035929;28;20203;-82
2022/06/13 13:18:20;;;;;;;1.58;1.00;;;;;;;;;;5039738;28;20193;-82
2022/06/13 13:20:49;;;;;;;2.38;1.45;;;;;;;;;;5043750;28;20646;-81
2022/06/13 13:23:19;;;;;;;2.25;1.00;;;;;;;;;;5048978;28;20712;-84
2022/06/13 13:25:50;;;;;;;3.00;0.97;;;;;;;;;;5048388;28;20255;-82
2022/06/13 13:28:21;;;;;;;4.93;1.20;;;;;;;;;;5046878;28;20943;-80
2022/06/13 13:30:52;;;;;;;1.80;1.27;;;;;;;;;;5042525;28;21088;-80
2022/06/13 13:33:35;;;;;;;2.10;1.40;;;;;;;;;;5035618;28;20201;-81
2022/06/13 13:36:05;;;;;;;2.50;1.00;;;;;;;;;;5032507;28;20873;-81
2022/06/13 13:38:35;;;;;;;2.85;1.10;;;;;;;;;;5033725;28;20220;-82
2022/06/13 13:41:06;;;;;;;1.10;0.88;;;;;;;;;;5036157;28;20201;-82
2022/06/13 13:43:36;;;;;;;1.70;1.03;;;;;;;;;;5033469;28;20209;-81
2022/06/13 13:46:06;;;;;;;1.00;0.80;;;;;;;;;;5031953;28;20525;-80
2022/06/13 13:48:37;;;;;;;3.47;1.30;;;;;;;;;;5032955;28;21096;-80
2022/06/13 13:51:08;;;;;;;1.97;1.17;;;;;;;;;;5034902;28;20471;-83
2022/06/13 13:53:37;;;;;;;1.20;0.90;;;;;;;;;;5029289;28;20460;-80
2022/06/13 13:56:09;;;;;;;1.43;1.00;;;;;;;;;;5036647;28;20206;-81
2022/06/13 13:58:37;;;;;;;6.20;1.48;;;;;;;;;;5031319;28;20968;-81
2022/06/13 14:01:08;;;;;;;1.87;1.23;;;;;;;;;;5033610;28;20213;-79
2022/06/13 14:03:40;;;;;;;2.25;1.23;;;;;;;;;;5032409;28;20471;-82
2022/06/13 14:06:10;;;;;;;2.13;1.20;;;;;;;;;;5039498;28;20216;-80
2022/06/13 14:08:38;;;;;;;1.77;1.30;;;;;;;;;;5035829;28;20450;-82
2022/06/13 14:11:08;;;;;;;1.10;0.85;;;;;;;;;;5049180;28;20201;-83
2022/06/13 14:13:37;;;;;;;1.60;1.00;;;;;;;;;;5044899;28;20256;-82
2022/06/13 14:16:12;;;;;;;1.03;0.90;;;;;;;;;;5047978;28;20460;-82
2022/06/13 14:18:51;;;;;;;3.38;0.90;;;;;;;;;;5041298;28;20536;-81
2022/06/13 14:21:19;;;;;;;1.30;0.90;;;;;;;;;;5043140;28;20205;-80
2022/06/13 14:23:48;;;;;;;1.33;0.90;;;;;;;;;;5042203;28;21006;-80
2022/06/13 14:26:20;;;;;;;3.53;1.30;;;;;;;;;;5042818;28;20590;-81
2022/06/13 14:28:49;;;;;;;1.58;1.05;;;;;;;;;;5042378;28;20457;-82
2022/06/13 14:31:16;;;;;;;1.97;1.10;;;;;;;;;;5044192;28;20230;-82
2022/06/13 14:37:03;;;;;;;1.80;0.90;;;;;;;;;;5006078;28;20300;-81
2022/06/13 14:39:32;;;;;;;2.53;1.07;;;;;;;;;;5039587;28;20458;-81
2022/06/13 14:42:03;;;;;;;1.45;1.08;;;;;;;;;;5038772;28;20485;-81
2022/06/13 14:44:36;;;;;;;1.53;1.23;;;;;;;;;;5031719;28;20200;-83
2022/06/13 14:47:06;;;;;;;1.43;0.83;;;;;;;;;;5036296;28;20953;-82
2022/06/13 14:49:40;;;;;;;1.58;0.80;;;;;;;;;;5037967;28;20473;-84
2022/06/13 14:52:12;;;;;;;1.93;1.00;;;;;;;;;;5040120;28;20201;-83
2022/06/13 14:54:41;;;;;;;1.67;1.20;;;;;;;;;;5042217;28;20465;-83
2022/06/13 14:57:27;;;;;;;1.92;0.90;;;;;;;;;;5048861;28;20719;-81
2022/06/13 15:00:10;;;;;;;1.53;0.90;;;;;;;;;;5046072;28;20201;-81
2022/06/13 15:02:57;;;;;;;1.40;0.80;;;;;;;;;;5046061;28;20490;-81
2022/06/13 15:05:41;;;;;;;1.40;0.88;;;;;;;;;;5054568;28;20678;-83
2022/06/13 15:08:12;;;;;;;1.30;0.70;;;;;;;;;;5033909;28;20197;-81
2022/06/13 15:10:44;;;;;;;1.70;1.00;;;;;;;;;;5048541;28;20207;-82
2022/06/13 15:13:11;;;;;;;1.70;1.00;;;;;;;;;;5042145;28;20465;-81
2022/06/13 15:15:40;;;;;;;1.80;0.93;;;;;;;;;;5034131;28;20220;-83
2022/06/13 15:18:07;;;;;;;2.58;1.00;;;;;;;;;;5048867;28;20195;-80
2022/06/13 15:20:36;;;;;;;2.00;1.40;;;;;;;;;;5046823;28;20211;-82
2022/06/13 15:23:06;;;;;;;1.70;0.90;;;;;;;;;;5029060;28;20197;-80